map of TEQ home
TEQ - Airport
Location
City:  Tekirdag, Tekirdag, Turkey
Name:Corlu
ICAO:LTBU
IATA:TEQ

Details
Type:Airport (Aerodrome, Airfield)
Use:Public/Civil, Military
Latitude:4108'18"N (41.138250)
Longitude:2755'09"E (27.919094)
Datum:WGS 1984
Elevation:574 ft (175 m)
Variation:5.45E (WMM2015 magnetic declination)
0.10 annual change
Runways:1
Longest:9844 × 148 ft (3000 × 45 m), paved

Time
Time Zone:UTC+3
Local Time:

Weather
METAR:LTBU 161750Z 03009KT CAVOK 11/07 Q1013

Related Locations
Nearby:
Farthest:RVV: 11214 mi / 18048 km
Raivavae, Tubuai Islands, Austral Islands, PF

Find:

   beyond  
but within

Other Information
Maps:
NOTAMs:
Links:
Sources:

  
  • flag of Turkey
  

Sectional Chart

Flight Planning
at skyvector.com

Satellite Image

Google Maps Satellite view

 

Copyright © 2004-2018 Karl L. Swartz. All rights reserved.
The Great Circle Mapper name and logo are trademarks of the Great Circle Mapper.
All other trademarks mentioned herein belong to their respective owners.
Please see credits for attibutions and further copyright information.

  Follow gcmap on Facebook Follow gcmap on Twitter Follow gcmap on Google+ GCmap on LinkedIn

hCard Microformat

Geo Microformat